Time;durP1;ratioP1;P1;durP2;ratioP2;P2;SDS_P1;SDS_P2;PMS_P1;PMS_P2;Temp;Humidity;BMP_temperature;BMP_pressure;BME280_temperature;BME280_humidity;BME280_pressure;Samples;Min_cycle;Max_cycle;Signal;HPM_P1;HPM_P2
2022/10/31 00:01:33;;;;;;;8.50;4.78;;;13.10;99.90;;;;;;4983878;28;20118;-81
2022/10/31 00:03:59;;;;;;;7.18;4.82;;;13.00;99.90;;;;;;4982894;28;20034;-80
2022/10/31 00:06:37;;;;;;;7.20;5.18;;;13.00;99.90;;;;;;5000079;28;20034;-81
2022/10/31 00:09:12;;;;;;;7.43;4.63;;;13.00;99.90;;;;;;4983636;28;20045;-81
2022/10/31 00:11:47;;;;;;;7.43;4.75;;;12.90;99.90;;;;;;4984085;28;20125;-81
2022/10/31 00:14:13;;;;;;;6.88;4.30;;;12.90;99.90;;;;;;4994385;28;20018;-80
2022/10/31 00:16:41;;;;;;;7.47;4.35;;;12.80;99.90;;;;;;4984662;28;20034;-81
2022/10/31 00:19:08;;;;;;;7.72;5.03;;;12.80;99.90;;;;;;4981816;28;20022;-81
2022/10/31 00:21:35;;;;;;;7.80;4.70;;;12.80;99.90;;;;;;4983931;28;20442;-80
2022/10/31 00:24:03;;;;;;;7.55;4.68;;;12.80;99.90;;;;;;4998812;28;20077;-80
2022/10/31 00:26:33;;;;;;;7.53;4.65;;;12.70;99.90;;;;;;4974417;28;20489;-80
2022/10/31 00:29:00;;;;;;;6.05;4.50;;;12.70;99.90;;;;;;4980999;28;20023;-81
2022/10/31 00:31:26;;;;;;;6.28;4.70;;;12.70;99.90;;;;;;5001740;28;20041;-81
2022/10/31 00:33:53;;;;;;;6.05;4.25;;;12.70;99.90;;;;;;4978462;28;20071;-80
2022/10/31 00:36:20;;;;;;;7.68;4.53;;;12.70;99.90;;;;;;4978485;28;20104;-80
2022/10/31 00:38:48;;;;;;;6.88;5.07;;;12.70;99.90;;;;;;4978538;28;20164;-80
2022/10/31 00:41:16;;;;;;;7.63;4.63;;;12.60;99.90;;;;;;4978733;28;20019;-80
2022/10/31 00:43:46;;;;;;;5.70;3.95;;;12.60;99.90;;;;;;4999614;28;20019;-80
2022/10/31 00:46:15;;;;;;;6.45;4.47;;;12.60;99.90;;;;;;4979825;28;20026;-80
2022/10/31 00:48:45;;;;;;;7.22;4.20;;;12.60;99.90;;;;;;5005540;28;20022;-78
2022/10/31 00:51:17;;;;;;;7.38;4.20;;;12.60;99.90;;;;;;4994980;28;20065;-79
2022/10/31 00:53:44;;;;;;;7.95;4.75;;;12.60;99.90;;;;;;4981494;28;20022;-79
2022/10/31 00:56:15;;;;;;;7.22;4.07;;;12.60;99.90;;;;;;4993285;28;20117;-80
2022/10/31 00:58:40;;;;;;;6.07;3.63;;;12.60;99.90;;;;;;4982377;28;20050;-80
2022/10/31 01:01:14;;;;;;;6.47;4.22;;;12.50;99.90;;;;;;4985489;28;20022;-80
2022/10/31 01:03:40;;;;;;;;;;;12.50;99.90;;;;;;4980933;28;20416;-80
2022/10/31 01:06:11;;;;;;;5.85;4.25;;;12.40;99.90;;;;;;4978397;28;20380;-80
2022/10/31 01:08:41;;;;;;;6.15;3.92;;;12.40;99.90;;;;;;4978817;28;20034;-80
2022/10/31 01:11:30;;;;;;;6.80;4.10;;;12.40;99.90;;;;;;4968992;28;20113;-80
2022/10/31 01:13:59;;;;;;;5.90;4.43;;;12.40;99.90;;;;;;4961895;28;20462;-79
2022/10/31 01:16:36;;;;;;;8.48;5.10;;;12.40;99.90;;;;;;4978356;28;20421;-80
2022/10/31 01:19:02;;;;;;;6.45;4.53;;;12.40;99.90;;;;;;5010223;28;20125;-80
2022/10/31 01:21:29;;;;;;;6.85;4.53;;;12.40;99.90;;;;;;4983207;28;20537;-80
2022/10/31 01:23:55;;;;;;;7.00;4.38;;;12.40;99.90;;;;;;4977844;28;20062;-82
2022/10/31 01:26:23;;;;;;;7.93;4.72;;;12.40;99.90;;;;;;4977314;28;20081;-81
2022/10/31 01:29:04;;;;;;;6.53;4.72;;;12.40;99.90;;;;;;4978446;28;20030;-81
2022/10/31 01:31:34;;;;;;;7.45;5.03;;;12.40;99.90;;;;;;4981471;28;20027;-81
2022/10/31 01:33:59;;;;;;;9.02;5.35;;;12.40;99.90;;;;;;4977660;28;20034;-81
2022/10/31 01:36:28;;;;;;;7.15;5.03;;;12.30;99.90;;;;;;4995170;28;20033;-81
2022/10/31 01:38:58;;;;;;;9.68;5.13;;;12.30;99.90;;;;;;4979556;28;20034;-80
2022/10/31 01:41:27;;;;;;;9.18;5.80;;;12.30;99.90;;;;;;4978699;28;20038;-81
2022/10/31 01:44:14;;;;;;;9.30;5.57;;;12.30;99.90;;;;;;4980894;28;20025;-80
2022/10/31 01:46:51;;;;;;;8.15;5.05;;;12.20;99.90;;;;;;4973975;28;20474;-80
2022/10/31 01:49:41;;;;;;;7.30;5.10;;;12.20;99.90;;;;;;4974477;28;20497;-80
2022/10/31 01:52:18;;;;;;;8.00;5.70;;;12.10;99.90;;;;;;4977562;28;20459;-80
2022/10/31 01:55:13;;;;;;;8.82;5.65;;;12.10;99.90;;;;;;5005787;28;20029;-79
2022/10/31 01:57:45;;;;;;;8.65;5.57;;;12.10;99.90;;;;;;4969645;28;20043;-80
2022/10/31 02:00:11;;;;;;;8.63;5.70;;;12.10;99.90;;;;;;4957560;28;20023;-80
2022/10/31 02:02:37;;;;;;;7.43;5.15;;;12.10;99.90;;;;;;4955767;28;20024;-79
2022/10/31 02:05:07;;;;;;;8.25;5.05;;;12.10;99.90;;;;;;4960377;28;20422;-80
2022/10/31 02:07:43;;;;;;;9.07;5.55;;;12.20;99.90;;;;;;4975425;28;20034;-79
2022/10/31 02:10:09;;;;;;;8.93;6.45;;;12.20;99.90;;;;;;4942098;28;20031;-79
2022/10/31 02:12:38;;;;;;;8.23;5.40;;;12.20;99.90;;;;;;4957296;28;20027;-79
2022/10/31 02:15:08;;;;;;;7.22;5.20;;;12.20;99.90;;;;;;4941780;28;20042;-80
2022/10/31 02:17:45;;;;;;;6.93;4.88;;;12.10;99.90;;;;;;4962565;28;20030;-79
2022/10/31 02:20:19;;;;;;;7.40;5.13;;;12.10;99.90;;;;;;4974539;28;20455;-80
2022/10/31 02:23:14;;;;;;;7.65;5.13;;;12.10;99.90;;;;;;4957696;28;20033;-80
2022/10/31 02:26:01;;;;;;;6.97;5.18;;;12.10;99.90;;;;;;4951552;28;20450;-80
2022/10/31 02:28:55;;;;;;;8.50;5.30;;;12.10;99.90;;;;;;4957231;28;20475;-80
2022/10/31 02:31:32;;;;;;;7.32;5.32;;;12.00;99.90;;;;;;4951253;28;20043;-79
2022/10/31 02:34:06;;;;;;;7.22;5.40;;;12.00;99.90;;;;;;4957682;28;20027;-80
2022/10/31 02:37:12;;;;;;;7.70;6.13;;;11.90;99.90;;;;;;4970473;28;20116;-79
2022/10/31 02:39:43;;;;;;;6.97;4.88;;;11.90;99.90;;;;;;4969901;28;20029;-79
2022/10/31 02:42:43;;;;;;;7.50;5.25;;;11.80;99.90;;;;;;4965222;28;20023;-80
2022/10/31 02:45:24;;;;;;;8.10;5.07;;;11.80;99.90;;;;;;4958617;28;20015;-80
2022/10/31 02:48:03;;;;;;;7.32;5.30;;;11.80;99.90;;;;;;4959429;28;20030;-79
2022/10/31 02:50:40;;;;;;;8.23;4.80;;;11.70;99.90;;;;;;4958675;28;20019;-79
2022/10/31 02:53:14;;;;;;;7.38;5.20;;;11.70;99.90;;;;;;4975483;28;20050;-79
2022/10/31 02:56:08;;;;;;;7.72;4.90;;;11.70;99.90;;;;;;4958415;28;20034;-81
2022/10/31 02:58:41;;;;;;;;;;;11.60;99.90;;;;;;4974885;28;20049;-80
2022/10/31 03:01:27;;;;;;;5.75;4.68;;;11.50;99.90;;;;;;4977289;28;19916;-80
2022/10/31 03:04:44;;;;;;;8.55;5.45;;;11.50;99.90;;;;;;4966046;28;20035;-79
2022/10/31 03:07:26;;;;;;;8.18;4.88;;;11.40;99.90;;;;;;4941263;28;20042;-80
2022/10/31 03:10:04;;;;;;;7.25;4.55;;;11.40;99.90;;;;;;4986367;28;20091;-79
2022/10/31 03:12:37;;;;;;;6.43;4.47;;;11.40;99.90;;;;;;4984505;28;20034;-80
2022/10/31 03:15:41;;;;;;;6.38;4.50;;;11.40;99.90;;;;;;4976860;28;20425;-80
2022/10/31 03:18:11;;;;;;;;;;;11.40;99.90;;;;;;4968214;28;20470;-80
2022/10/31 03:21:09;;;;;;;5.55;3.95;;;11.30;99.90;;;;;;4976687;28;19905;-80
2022/10/31 03:23:46;;;;;;;9.52;5.10;;;11.20;99.90;;;;;;4994169;28;20075;-80
2022/10/31 03:26:20;;;;;;;7.25;5.07;;;11.20;99.90;;;;;;4981645;28;20026;-80
2022/10/31 03:28:57;;;;;;;6.30;4.93;;;11.10;99.90;;;;;;4976439;28;20026;-80
2022/10/31 03:31:28;;;;;;;7.15;4.78;;;11.10;99.90;;;;;;4980365;28;20026;-80
2022/10/31 03:33:57;;;;;;;8.80;5.22;;;11.10;99.90;;;;;;4980431;28;20434;-80
2022/10/31 03:36:27;;;;;;;7.15;5.07;;;11.00;99.90;;;;;;4980079;28;20053;-81
2022/10/31 03:38:54;;;;;;;6.70;4.78;;;11.00;99.90;;;;;;4980431;28;20038;-80
2022/10/31 03:41:25;;;;;;;8.95;5.47;;;11.00;99.90;;;;;;4980373;28;20047;-80
2022/10/31 03:44:00;;;;;;;8.82;5.45;;;11.00;99.90;;;;;;4997427;28;20054;-80
2022/10/31 03:46:26;;;;;;;8.13;4.68;;;10.90;99.90;;;;;;4979947;28;20382;-81
2022/10/31 03:48:52;;;;;;;8.65;5.15;;;10.90;99.90;;;;;;4991302;28;20031;-81
2022/10/31 03:51:51;;;;;;;6.40;4.72;;;10.90;99.90;;;;;;4974300;28;20029;-81
2022/10/31 03:54:36;;;;;;;7.47;5.13;;;10.90;99.90;;;;;;4980074;28;20110;-81
2022/10/31 03:57:23;;;;;;;9.07;5.47;;;10.90;99.90;;;;;;4968326;28;20026;-81
2022/10/31 04:00:11;;;;;;;7.63;5.40;;;10.80;99.90;;;;;;4978987;28;20033;-81
2022/10/31 04:02:59;;;;;;;6.68;4.85;;;10.80;99.90;;;;;;4979676;28;20466;-81
2022/10/31 04:05:28;;;;;;;8.13;5.00;;;10.80;99.90;;;;;;4986288;28;20046;-81
2022/10/31 04:07:59;;;;;;;7.47;4.95;;;10.70;99.90;;;;;;4979627;28;20475;-81
2022/10/31 04:10:28;;;;;;;7.85;5.43;;;10.70;99.90;;;;;;4979570;28;20113;-81
2022/10/31 04:13:06;;;;;;;7.10;5.03;;;10.70;99.90;;;;;;4996600;28;20106;-81
2022/10/31 04:15:32;;;;;;;7.75;5.15;;;10.70;99.90;;;;;;4979430;28;20109;-81
2022/10/31 04:18:03;;;;;;;8.30;5.72;;;10.60;99.90;;;;;;4979419;28;20489;-81
2022/10/31 04:20:33;;;;;;;7.10;5.70;;;10.60;99.90;;;;;;4971613;28;20058;-81
2022/10/31 04:23:01;;;;;;;7.70;5.60;;;10.60;99.90;;;;;;4975889;28;20023;-80
2022/10/31 04:25:27;;;;;;;6.78;4.72;;;10.60;99.90;;;;;;4997590;28;20026;-81
2022/10/31 04:27:54;;;;;;;8.13;5.63;;;10.50;99.90;;;;;;4990609;28;20046;-79
2022/10/31 04:30:20;;;;;;;7.85;6.07;;;10.50;99.90;;;;;;5013214;28;20069;-81
2022/10/31 04:32:46;;;;;;;7.80;5.55;;;10.50;99.90;;;;;;4982581;28;20466;-81
2022/10/31 04:35:12;;;;;;;8.18;5.50;;;10.50;99.90;;;;;;4980412;28;20469;-81
2022/10/31 04:37:37;;;;;;;7.70;5.43;;;10.50;99.90;;;;;;4980870;28;20474;-81
2022/10/31 04:40:10;;;;;;;7.97;5.30;;;10.50;99.90;;;;;;4979831;28;20113;-81
2022/10/31 04:42:39;;;;;;;10.35;6.30;;;10.50;99.90;;;;;;4980030;28;20022;-80
2022/10/31 04:45:18;;;;;;;7.70;5.05;;;10.50;99.90;;;;;;4980103;28;20458;-81
2022/10/31 04:47:48;;;;;;;8.68;6.25;;;10.40;99.90;;;;;;4980160;28;20023;-81
2022/10/31 04:50:17;;;;;;;7.82;4.93;;;10.40;99.90;;;;;;4980036;28;20050;-81
2022/10/31 04:52:48;;;;;;;9.32;5.53;;;10.50;99.90;;;;;;4979963;28;20026;-81
2022/10/31 04:55:14;;;;;;;7.03;5.13;;;10.40;99.90;;;;;;4979116;28;20026;-81
2022/10/31 04:57:48;;;;;;;7.88;5.97;;;10.50;99.90;;;;;;4976635;28;20050;-81
2022/10/31 05:00:24;;;;;;;6.97;5.07;;;10.40;99.90;;;;;;4943691;28;20062;-81
2022/10/31 05:03:02;;;;;;;7.85;5.43;;;10.40;99.90;;;;;;4959674;28;20126;-81
2022/10/31 05:05:34;;;;;;;9.88;5.70;;;10.40;99.90;;;;;;4976773;28;20035;-81
2022/10/31 05:08:04;;;;;;;7.00;4.85;;;10.30;99.90;;;;;;4959437;28;20478;-81
2022/10/31 05:10:35;;;;;;;8.40;5.38;;;10.30;99.90;;;;;;4977085;28;20035;-81
2022/10/31 05:13:08;;;;;;;7.55;5.10;;;10.30;99.90;;;;;;4988459;28;20054;-81
2022/10/31 05:15:34;;;;;;;7.03;4.90;;;10.30;99.90;;;;;;4959531;28;20391;-81
2022/10/31 05:18:06;;;;;;;7.93;5.13;;;10.30;99.90;;;;;;4959302;28;20073;-81
2022/10/31 05:20:44;;;;;;;7.45;5.43;;;10.30;99.90;;;;;;4956315;28;20122;-81
2022/10/31 05:23:21;;;;;;;8.45;5.30;;;10.30;99.90;;;;;;4953639;28;20038;-80
2022/10/31 05:25:50;;;;;;;7.25;5.22;;;10.30;99.90;;;;;;4971032;28;20447;-80
2022/10/31 05:28:24;;;;;;;7.50;5.25;;;10.30;99.90;;;;;;4959784;28;20043;-80
2022/10/31 05:30:53;;;;;;;7.90;5.13;;;10.30;99.90;;;;;;4942408;28;20114;-81
2022/10/31 05:33:22;;;;;;;7.88;5.38;;;10.30;99.90;;;;;;4957327;28;20122;-80
2022/10/31 05:35:49;;;;;;;9.00;5.28;;;10.30;99.90;;;;;;4956032;28;20043;-81
2022/10/31 05:38:17;;;;;;;8.30;5.32;;;10.30;99.90;;;;;;4957490;28;20533;-80
2022/10/31 05:40:43;;;;;;;7.60;5.30;;;10.30;99.90;;;;;;4974492;28;20031;-80
2022/10/31 05:43:13;;;;;;;7.50;5.13;;;10.30;99.90;;;;;;4957187;28;20119;-81
2022/10/31 05:45:38;;;;;;;7.85;5.88;;;10.30;99.90;;;;;;4958729;28;20027;-79
2022/10/31 05:48:05;;;;;;;8.82;5.20;;;10.30;99.90;;;;;;4952479;28;20023;-79
2022/10/31 05:50:31;;;;;;;7.80;5.38;;;10.30;99.90;;;;;;4975568;28;20383;-80
2022/10/31 05:53:00;;;;;;;8.02;5.32;;;10.40;99.90;;;;;;4957703;28;20026;-81
2022/10/31 05:55:32;;;;;;;7.43;5.45;;;10.40;99.90;;;;;;4975640;28;20031;-80
2022/10/31 05:57:58;;;;;;;7.90;4.85;;;10.50;99.90;;;;;;4962210;28;20073;-80
2022/10/31 06:00:28;;;;;;;6.25;4.25;;;10.40;99.90;;;;;;4977884;28;20066;-80
2022/10/31 06:03:06;;;;;;;7.10;4.60;;;10.50;99.90;;;;;;4977523;28;20031;-79
2022/10/31 06:05:36;;;;;;;6.70;4.38;;;10.50;99.90;;;;;;4994832;28;20493;-79
2022/10/31 06:08:01;;;;;;;7.63;4.80;;;10.50;99.90;;;;;;4976995;28;20489;-79
2022/10/31 06:10:28;;;;;;;6.65;4.22;;;10.40;99.90;;;;;;4995110;28;20031;-80
2022/10/31 06:12:57;;;;;;;7.47;4.50;;;10.40;99.90;;;;;;4977441;28;20022;-80
2022/10/31 06:15:22;;;;;;;6.85;3.95;;;10.40;99.90;;;;;;4967178;28;20034;-79
2022/10/31 06:18:03;;;;;;;6.75;4.50;;;10.30;99.90;;;;;;4995314;28;20027;-79
2022/10/31 06:20:32;;;;;;;6.13;4.40;;;10.30;99.90;;;;;;4999395;28;20034;-81
2022/10/31 06:23:02;;;;;;;8.00;4.72;;;10.20;99.90;;;;;;4984979;28;20072;-79
2022/10/31 06:25:32;;;;;;;7.18;4.85;;;10.20;99.90;;;;;;4978682;28;20023;-80
2022/10/31 06:28:02;;;;;;;6.55;4.50;;;10.20;99.90;;;;;;4996179;28;20026;-80
2022/10/31 06:30:30;;;;;;;8.25;4.43;;;10.20;99.90;;;;;;4961913;28;20042;-80
2022/10/31 06:33:02;;;;;;;6.57;4.20;;;10.20;99.90;;;;;;4995422;28;20031;-79
2022/10/31 06:35:31;;;;;;;6.70;4.47;;;10.20;99.90;;;;;;4995380;28;20038;-79
2022/10/31 06:37:57;;;;;;;5.60;3.85;;;10.20;99.90;;;;;;4978111;28;20109;-79
2022/10/31 06:40:23;;;;;;;6.53;4.70;;;10.20;99.90;;;;;;4977873;28;20557;-79
2022/10/31 06:43:04;;;;;;;9.25;4.97;;;10.20;99.90;;;;;;4977853;28;20026;-80
2022/10/31 06:45:31;;;;;;;8.20;4.80;;;10.20;99.90;;;;;;4990203;28;20053;-79
2022/10/31 06:48:00;;;;;;;6.78;4.75;;;10.20;99.90;;;;;;4967018;28;20026;-79
2022/10/31 06:50:34;;;;;;;7.47;4.95;;;10.20;99.90;;;;;;4948018;28;20027;-79
2022/10/31 06:53:10;;;;;;;8.60;5.60;;;10.20;99.90;;;;;;4980556;28;20062;-80
2022/10/31 06:55:41;;;;;;;8.07;5.05;;;10.20;99.90;;;;;;4968607;28;20125;-80
2022/10/31 06:58:19;;;;;;;7.28;5.35;;;10.20;99.90;;;;;;4964321;28;20061;-79
2022/10/31 07:00:45;;;;;;;8.15;5.05;;;10.20;99.90;;;;;;4984763;28;20501;-79
2022/10/31 07:03:20;;;;;;;9.27;5.53;;;10.20;99.90;;;;;;4988546;28;20054;-80
2022/10/31 07:05:45;;;;;;;8.20;5.65;;;10.20;99.90;;;;;;4976301;28;20030;-81
2022/10/31 07:08:13;;;;;;;8.30;5.43;;;10.20;99.90;;;;;;4985530;28;20026;-80
2022/10/31 07:10:40;;;;;;;8.02;5.38;;;10.20;99.90;;;;;;4993142;28;20109;-80
2022/10/31 07:13:11;;;;;;;8.55;5.88;;;10.30;99.90;;;;;;4975110;28;20387;-81
2022/10/31 07:15:38;;;;;;;11.07;6.32;;;10.30;99.90;;;;;;4975762;28;20050;-79
2022/10/31 07:18:07;;;;;;;7.78;5.10;;;10.40;99.90;;;;;;4975578;28;20386;-79
2022/10/31 07:20:36;;;;;;;10.00;5.53;;;10.40;99.90;;;;;;4969405;28;20375;-79
2022/10/31 07:23:02;;;;;;;8.80;6.40;;;10.50;99.90;;;;;;4981464;28;20045;-79
2022/10/31 07:25:29;;;;;;;8.73;6.13;;;10.60;99.90;;;;;;4994883;28;20026;-79
2022/10/31 07:27:55;;;;;;;8.43;6.28;;;10.70;99.90;;;;;;4980278;28;20081;-79
2022/10/31 07:30:21;;;;;;;11.30;6.75;;;10.80;99.90;;;;;;4981661;28;20057;-79
2022/10/31 07:32:50;;;;;;;8.68;6.00;;;10.80;99.90;;;;;;4974164;28;20471;-80
2022/10/31 07:35:27;;;;;;;9.38;6.65;;;10.90;99.90;;;;;;4988858;28;20520;-80
2022/10/31 07:37:54;;;;;;;8.52;5.90;;;11.00;99.90;;;;;;4983870;28;20038;-80
2022/10/31 07:40:21;;;;;;;10.95;6.63;;;11.10;99.90;;;;;;4997669;28;20049;-79
2022/10/31 07:42:49;;;;;;;10.07;6.80;;;11.20;99.90;;;;;;4967163;28;20038;-80
2022/10/31 07:45:18;;;;;;;8.48;6.10;;;11.30;99.90;;;;;;4975498;28;20018;-80
2022/10/31 07:47:52;;;;;;;10.27;6.15;;;11.40;99.90;;;;;;4977794;28;20022;-80
2022/10/31 07:50:26;;;;;;;8.85;6.00;;;11.50;99.90;;;;;;4979839;28;20117;-80
2022/10/31 07:53:09;;;;;;;8.75;6.00;;;11.60;99.90;;;;;;4977698;28;20056;-80
2022/10/31 07:55:36;;;;;;;8.05;5.53;;;11.70;99.90;;;;;;4974754;28;20026;-80
2022/10/31 07:58:16;;;;;;;8.20;5.20;;;11.80;99.90;;;;;;4958494;28;20042;-80
2022/10/31 08:00:44;;;;;;;8.05;5.20;;;11.90;99.90;;;;;;4976351;28;20018;-79
2022/10/31 08:03:17;;;;;;;7.25;5.07;;;12.00;99.90;;;;;;4978063;28;20034;-80
2022/10/31 08:05:45;;;;;;;8.00;4.82;;;12.10;99.90;;;;;;4954879;28;20045;-80
2022/10/31 08:08:13;;;;;;;8.32;5.57;;;12.20;99.90;;;;;;4980501;28;20026;-80
2022/10/31 08:10:40;;;;;;;8.18;5.20;;;12.30;99.90;;;;;;4975861;28;20050;-79
2022/10/31 08:13:12;;;;;;;7.15;4.90;;;12.40;99.90;;;;;;4967279;28;20023;-80
2022/10/31 08:15:41;;;;;;;8.70;5.27;;;12.50;99.90;;;;;;4976911;28;20094;-78
2022/10/31 08:18:11;;;;;;;9.30;5.57;;;12.70;99.90;;;;;;5013323;28;20296;-80
2022/10/31 08:20:42;;;;;;;9.18;5.40;;;12.80;99.90;;;;;;5013150;28;20052;-80
2022/10/31 08:23:10;;;;;;;10.07;5.47;;;12.90;99.90;;;;;;4970221;28;20451;-80
2022/10/31 08:25:38;;;;;;;8.77;5.63;;;13.10;99.90;;;;;;4982402;28;20033;-80
2022/10/31 08:28:06;;;;;;;7.93;5.68;;;13.20;99.90;;;;;;4981431;28;20034;-80
2022/10/31 08:30:34;;;;;;;8.80;6.20;;;13.30;99.90;;;;;;4996672;28;20126;-80
2022/10/31 08:33:14;;;;;;;8.35;6.40;;;13.40;99.90;;;;;;5002769;28;20246;-80
2022/10/31 08:35:43;;;;;;;8.73;6.38;;;13.50;99.90;;;;;;4993110;28;20038;-79
2022/10/31 08:38:11;;;;;;;9.02;6.07;;;13.60;99.90;;;;;;4984903;28;20026;-80
2022/10/31 08:40:37;;;;;;;8.77;5.90;;;13.70;99.90;;;;;;4998046;28;20038;-79
2022/10/31 08:43:14;;;;;;;8.93;5.43;;;13.80;99.90;;;;;;4978395;28;20023;-80
2022/10/31 08:45:41;;;;;;;8.10;5.50;;;13.90;99.90;;;;;;4972092;28;20030;-79
2022/10/31 08:48:15;;;;;;;8.48;6.13;;;14.00;99.90;;;;;;4966043;28;20058;-80
2022/10/31 08:50:47;;;;;;;8.77;6.13;;;14.20;99.90;;;;;;4978528;28;20030;-79
2022/10/31 08:53:19;;;;;;;10.32;6.00;;;14.40;99.90;;;;;;4979143;28;20473;-79
2022/10/31 08:55:49;;;;;;;10.60;6.82;;;14.80;99.90;;;;;;4982053;28;20030;-80
2022/10/31 08:58:19;;;;;;;13.27;7.32;;;15.80;99.90;;;;;;4962862;28;20521;-80
2022/10/31 09:00:46;;;;;;;9.48;6.65;;;16.60;99.90;;;;;;4980740;28;20436;-79
2022/10/31 09:03:15;;;;;;;8.10;5.70;;;17.40;99.90;;;;;;4982223;28;20486;-79
2022/10/31 09:05:45;;;;;;;7.85;6.13;;;18.00;99.90;;;;;;5008683;28;20047;-80
2022/10/31 09:08:13;;;;;;;7.82;5.88;;;18.50;99.90;;;;;;5005283;28;20013;-78
2022/10/31 09:10:40;;;;;;;7.68;6.15;;;18.80;99.90;;;;;;4990466;28;20696;-80
2022/10/31 09:13:12;;;;;;;8.65;5.78;;;18.90;99.90;;;;;;4951247;28;20085;-81
2022/10/31 09:15:40;;;;;;;9.55;6.10;;;19.10;99.90;;;;;;4981921;28;20077;-80
2022/10/31 09:18:07;;;;;;;8.25;5.97;;;19.20;99.90;;;;;;4997506;28;20026;-79
2022/10/31 09:20:39;;;;;;;6.75;5.28;;;19.10;99.90;;;;;;4996663;28;20025;-80
2022/10/31 09:23:11;;;;;;;7.53;5.70;;;19.10;99.90;;;;;;4995540;28;20027;-80
2022/10/31 09:25:39;;;;;;;7.10;5.13;;;19.00;99.90;;;;;;4996862;28;20434;-80
2022/10/31 09:28:14;;;;;;;7.72;5.60;;;18.60;99.90;;;;;;4997905;28;20022;-80
2022/10/31 09:30:41;;;;;;;8.68;5.68;;;18.20;99.90;;;;;;4976077;28;20033;-79
2022/10/31 09:33:10;;;;;;;8.45;5.60;;;17.80;99.90;;;;;;4987921;28;20033;-80
2022/10/31 09:35:41;;;;;;;7.78;5.68;;;17.50;99.90;;;;;;4984575;28;20042;-81
2022/10/31 09:38:20;;;;;;;7.35;5.90;;;17.30;99.90;;;;;;4972287;28;20027;-81
2022/10/31 09:41:17;;;;;;;7.80;5.97;;;17.20;99.90;;;;;;4977173;28;20041;-81
2022/10/31 09:44:00;;;;;;;9.40;6.05;;;17.20;99.90;;;;;;4989063;28;20022;-82
2022/10/31 09:46:44;;;;;;;8.30;5.90;;;17.10;99.90;;;;;;4974118;28;20062;-80
2022/10/31 09:49:37;;;;;;;8.98;5.90;;;17.00;99.90;;;;;;4992971;28;20031;-81
2022/10/31 09:52:18;;;;;;;7.50;5.85;;;16.90;99.90;;;;;;4992082;28;20360;-81
2022/10/31 09:54:54;;;;;;;9.20;6.30;;;16.90;99.90;;;;;;4985330;28;20069;-81
2022/10/31 09:57:32;;;;;;;10.18;7.05;;;16.80;99.90;;;;;;4979774;28;20038;-81
2022/10/31 09:59:58;;;;;;;10.05;6.32;;;16.70;99.90;;;;;;4968400;28;20050;-81
2022/10/31 10:02:51;;;;;;;11.85;7.28;;;16.50;99.90;;;;;;4981602;28;20022;-81
2022/10/31 10:05:36;;;;;;;10.15;7.15;;;16.50;99.90;;;;;;4971190;28;20040;-81
2022/10/31 10:08:23;;;;;;;9.25;6.20;;;16.40;99.90;;;;;;4962713;28;20465;-81
2022/10/31 10:11:08;;;;;;;9.80;7.10;;;16.40;99.90;;;;;;4994123;28;20018;-79
2022/10/31 10:13:56;;;;;;;11.63;7.70;;;16.50;99.90;;;;;;4998221;28;20035;-80
2022/10/31 10:16:21;;;;;;;14.65;8.43;;;16.90;99.90;;;;;;5022535;28;20050;-81
2022/10/31 10:19:18;;;;;;;11.95;8.50;;;17.20;99.90;;;;;;4980539;28;20482;-81
2022/10/31 10:21:57;;;;;;;10.45;7.90;;;17.20;99.90;;;;;;4979275;28;20030;-81
2022/10/31 10:24:22;;;;;;;14.48;8.38;;;17.00;99.90;;;;;;4975922;28;20085;-80
2022/10/31 10:27:08;;;;;;;12.57;8.57;;;16.80;99.90;;;;;;4972656;28;20386;-81
2022/10/31 10:29:37;;;;;;;13.48;9.32;;;16.70;99.90;;;;;;4964950;28;20452;-82
2022/10/31 10:32:17;;;;;;;14.10;9.60;;;16.60;99.90;;;;;;4980401;28;20351;-82
2022/10/31 10:34:50;;;;;;;13.05;9.68;;;16.50;99.90;;;;;;4988313;28;20390;-82
2022/10/31 10:37:30;;;;;;;14.60;9.25;;;16.40;99.90;;;;;;4965219;28;20027;-80
2022/10/31 10:40:07;;;;;;;13.25;8.38;;;16.40;99.90;;;;;;4966930;28;20026;-80
2022/10/31 10:48:13;;;;;;;12.65;8.23;;;16.30;99.90;;;;;;4993373;28;20496;-80
2022/10/31 10:50:47;;;;;;;11.93;7.40;;;16.30;99.90;;;;;;4977092;28;20030;-79
2022/10/31 10:53:32;;;;;;;12.30;8.52;;;16.30;99.90;;;;;;4976620;28;20101;-79
2022/10/31 10:56:15;;;;;;;13.43;7.95;;;16.40;99.90;;;;;;4976761;28;20037;-79
2022/10/31 10:58:47;;;;;;;13.65;8.90;;;17.00;99.90;;;;;;4984333;28;20046;-80
2022/10/31 11:01:17;;;;;;;11.18;7.18;;;17.90;99.90;;;;;;4977678;28;20027;-79
2022/10/31 11:03:49;;;;;;;13.32;7.53;;;18.60;99.90;;;;;;4976884;28;20023;-80
2022/10/31 11:06:25;;;;;;;12.98;8.20;;;18.80;99.90;;;;;;4976633;28;20030;-80
2022/10/31 11:08:52;;;;;;;12.57;7.75;;;19.00;99.90;;;;;;4976741;28;20111;-81
2022/10/31 11:11:21;;;;;;;11.40;7.35;;;19.10;99.90;;;;;;4994023;28;20026;-79
2022/10/31 11:13:53;;;;;;;12.48;7.32;;;19.10;99.90;;;;;;4976757;28;20022;-79
2022/10/31 11:16:42;;;;;;;11.27;6.75;;;19.00;99.90;;;;;;4976461;28;20073;-80
2022/10/31 11:19:15;;;;;;;10.13;7.25;;;18.90;99.90;;;;;;4993665;28;20106;-79
2022/10/31 11:21:41;;;;;;;;;;;19.00;99.90;;;;;;4976968;28;20063;-79
2022/10/31 11:24:09;;;;;;;11.25;6.75;;;19.00;99.90;;;;;;4976471;28;19906;-80
2022/10/31 11:26:37;;;;;;;11.75;7.13;;;19.00;99.90;;;;;;4975938;28;20049;-79
2022/10/31 11:29:05;;;;;;;10.98;7.00;;;18.90;99.90;;;;;;4981028;28;20022;-80
2022/10/31 11:31:34;;;;;;;10.65;7.05;;;18.70;99.90;;;;;;4981440;28;20022;-80
2022/10/31 11:34:14;;;;;;;13.57;7.25;;;18.60;99.90;;;;;;4997580;28;20022;-79
2022/10/31 11:36:44;;;;;;;11.68;7.80;;;18.60;99.90;;;;;;4989956;28;20042;-80
2022/10/31 11:39:24;;;;;;;12.77;8.20;;;18.60;99.90;;;;;;4964517;28;20467;-80
2022/10/31 11:41:51;;;;;;;11.82;7.93;;;18.70;99.90;;;;;;4963508;28;20109;-82
2022/10/31 11:44:29;;;;;;;14.25;9.23;;;18.70;99.90;;;;;;4971016;28;20029;-80
2022/10/31 11:47:03;;;;;;;13.70;9.52;;;18.90;99.90;;;;;;4982060;28;20034;-79
2022/10/31 11:49:41;;;;;;;16.60;10.68;;;18.80;99.90;;;;;;4978856;28;20462;-80
2022/10/31 11:52:30;;;;;;;13.13;9.57;;;18.80;99.90;;;;;;4994720;28;20022;-82
2022/10/31 11:55:14;;;;;;;13.55;9.65;;;18.70;99.90;;;;;;4994183;28;20021;-81
2022/10/31 11:57:49;;;;;;;15.65;9.85;;;18.70;99.90;;;;;;4975644;28;20047;-80
2022/10/31 12:00:40;;;;;;;14.32;9.45;;;18.70;99.90;;;;;;4972036;28;20054;-79
2022/10/31 12:03:23;;;;;;;13.60;9.10;;;18.60;99.90;;;;;;4992828;28;20025;-79
2022/10/31 12:06:07;;;;;;;13.82;9.25;;;18.50;99.90;;;;;;5001956;28;20041;-79
2022/10/31 12:08:39;;;;;;;13.32;8.98;;;18.40;99.90;;;;;;4989908;28;20107;-79
2022/10/31 12:11:27;;;;;;;17.13;9.32;;;18.40;99.90;;;;;;4991897;28;20207;-80
2022/10/31 12:14:20;;;;;;;15.88;10.93;;;18.40;99.90;;;;;;5013579;28;20048;-83
2022/10/31 12:17:39;;;;;;;15.52;10.75;;;18.60;99.90;;;;;;4967111;28;20047;-82
2022/10/31 12:20:19;;;;;;;21.00;13.07;;;19.10;99.90;;;;;;4899817;29;20135;-80
2022/10/31 12:23:06;;;;;;;21.35;14.07;;;19.30;99.90;;;;;;4915549;29;20373;-82
2022/10/31 12:25:36;;;;;;;23.92;14.35;;;19.20;99.90;;;;;;4917386;29;20059;-81
2022/10/31 12:28:08;;;;;;;19.77;13.98;;;19.00;99.90;;;;;;4903632;29;20070;-81
2022/10/31 12:31:20;;;;;;;17.55;13.07;;;18.90;99.90;;;;;;4923425;28;20150;-80
2022/10/31 12:34:11;;;;;;;20.10;13.85;;;18.70;99.90;;;;;;4972287;28;20707;-82
2022/10/31 12:36:45;;;;;;;16.65;11.98;;;18.50;99.90;;;;;;4981765;28;20046;-81
2022/10/31 12:39:29;;;;;;;16.40;11.98;;;18.50;99.90;;;;;;4975514;28;20025;-81
2022/10/31 12:42:16;;;;;;;18.02;12.18;;;18.50;99.90;;;;;;4996395;28;20093;-81
2022/10/31 12:45:01;;;;;;;16.27;10.85;;;18.60;99.90;;;;;;4981483;28;20033;-81
2022/10/31 12:47:55;;;;;;;17.48;10.70;;;18.80;99.90;;;;;;4989710;28;20389;-83
2022/10/31 12:51:08;;;;;;;15.63;10.23;;;19.20;99.90;;;;;;4975995;28;20030;-82
2022/10/31 12:54:00;;;;;;;13.95;9.05;;;19.40;99.90;;;;;;4984189;28;20618;-83
2022/10/31 12:56:35;;;;;;;13.55;9.40;;;19.50;99.90;;;;;;4974885;28;20041;-82
2022/10/31 12:59:30;;;;;;;13.77;9.85;;;19.50;99.90;;;;;;4978829;28;20530;-83
2022/10/31 13:02:09;;;;;;;17.30;10.52;;;19.60;99.90;;;;;;4969801;28;20026;-82
2022/10/31 13:04:50;;;;;;;15.70;10.50;;;19.50;99.90;;;;;;4989090;28;20551;-82
2022/10/31 13:07:30;;;;;;;15.38;9.52;;;19.80;99.90;;;;;;4965322;28;20077;-81
2022/10/31 13:10:35;;;;;;;16.15;10.13;;;20.40;99.90;;;;;;4980570;28;20045;-82
2022/10/31 13:13:24;;;;;;;16.70;9.75;;;21.20;99.90;;;;;;4970894;28;20065;-83
2022/10/31 13:16:04;;;;;;;13.43;8.80;;;21.50;99.90;;;;;;4973093;28;20039;-81
2022/10/31 13:18:38;;;;;;;12.70;8.85;;;21.20;99.90;;;;;;4987121;28;20232;-80
2022/10/31 13:21:21;;;;;;;17.65;10.20;;;21.10;99.90;;;;;;4974945;28;20181;-81
2022/10/31 13:23:52;;;;;;;15.80;9.07;;;21.00;99.90;;;;;;4976982;28;20041;-82
2022/10/31 13:26:35;;;;;;;13.35;9.35;;;20.90;99.90;;;;;;4982821;28;20049;-80
2022/10/31 13:29:25;;;;;;;;;;;20.60;99.90;;;;;;4996450;28;20052;-80